createdAt,value
2018-07-14T00:02:19.639Z,100760.23
2018-07-14T00:04:47.443Z,100761.09
2018-07-14T00:07:15.172Z,100769.39
2018-07-14T00:09:42.988Z,100756.38
2018-07-14T00:12:10.807Z,100760.54
2018-07-14T00:14:38.645Z,100761.12
2018-07-14T00:17:06.519Z,100760.78
2018-07-14T00:19:34.275Z,100761.41
2018-07-14T00:22:02.064Z,100762.44
2018-07-14T00:24:29.890Z,100760.00
2018-07-14T00:26:57.615Z,100763.04
2018-07-14T00:29:25.470Z,100756.17
2018-07-14T00:31:53.240Z,100750.06
2018-07-14T00:34:21.012Z,100757.56
2018-07-14T00:36:48.785Z,100753.13
2018-07-14T00:39:16.603Z,100748.13
2018-07-14T00:41:44.349Z,100754.79
2018-07-14T00:44:12.120Z,100756.73
2018-07-14T00:46:39.947Z,100758.66
2018-07-14T00:49:07.796Z,100759.22
2018-07-14T00:51:35.555Z,100761.72
2018-07-14T00:54:03.431Z,100760.31
2018-07-14T00:56:31.216Z,100765.29
2018-07-14T00:58:59.026Z,100755.06
2018-07-14T01:01:26.867Z,100767.52
2018-07-14T01:03:54.669Z,100755.30
2018-07-14T01:06:22.507Z,100755.05
2018-07-14T01:08:50.271Z,100754.48
2018-07-14T01:11:18.012Z,100754.77
2018-07-14T01:13:45.886Z,100756.66
2018-07-14T01:16:13.723Z,100756.42
2018-07-14T01:18:41.543Z,100761.12
2018-07-14T01:21:09.374Z,100758.67
2018-07-14T01:23:37.211Z,100759.73
2018-07-14T01:26:05.528Z,100766.34
2018-07-14T01:28:33.455Z,100765.84
2018-07-14T01:31:01.318Z,100765.58
2018-07-14T01:33:29.101Z,100765.30
2018-07-14T01:35:56.874Z,100763.67
2018-07-14T01:38:24.663Z,100765.34
2018-07-14T01:40:52.474Z,100764.25
2018-07-14T01:43:20.223Z,100763.13
2018-07-14T01:45:48.000Z,100761.75
2018-07-14T01:48:15.719Z,100760.94
2018-07-14T01:50:43.519Z,100763.96
2018-07-14T01:53:11.312Z,100756.50
2018-07-14T01:55:39.132Z,100760.66
2018-07-14T01:58:06.883Z,100755.66
2018-07-14T02:00:34.691Z,100755.97
2018-07-14T02:03:02.536Z,100756.77
2018-07-14T02:05:30.324Z,100755.93
2018-07-14T02:07:58.168Z,100751.80
2018-07-14T02:10:25.964Z,100762.29
2018-07-14T02:12:53.705Z,100767.02
2018-07-14T02:15:21.516Z,100762.02
2018-07-14T02:17:49.294Z,100756.50
2018-07-14T02:20:17.250Z,100760.92
2018-07-14T02:22:45.083Z,100761.72
2018-07-14T02:25:12.901Z,100758.66
2018-07-14T02:27:40.726Z,100763.38
2018-07-14T02:30:08.486Z,100771.16
2018-07-14T02:32:36.315Z,100773.94
2018-07-14T02:35:04.206Z,100769.50
2018-07-14T02:37:31.999Z,100773.13
2018-07-14T02:39:59.820Z,100776.70
2018-07-14T02:42:27.645Z,100776.42
2018-07-14T02:44:55.424Z,100774.19
2018-07-14T02:47:23.221Z,100775.03
2018-07-14T02:49:51.039Z,100779.73
2018-07-14T02:52:18.989Z,100768.96
2018-07-14T02:54:47.083Z,100782.78
2018-07-14T02:57:14.856Z,100776.70
2018-07-14T02:59:42.741Z,100777.81
2018-07-14T03:02:10.516Z,100776.43
2018-07-14T03:04:38.307Z,100776.72
2018-07-14T03:07:06.267Z,100777.25
2018-07-14T03:09:34.179Z,100776.72
2018-07-14T03:12:01.940Z,100776.16
2018-07-14T03:14:29.767Z,100771.73
2018-07-14T03:16:57.620Z,100771.45
2018-07-14T03:19:25.471Z,100766.45
2018-07-14T03:21:53.376Z,100767.30
2018-07-14T03:24:21.268Z,100763.70
2018-07-14T03:26:49.165Z,100767.30
2018-07-14T03:29:16.944Z,100766.20
2018-07-14T03:31:44.751Z,100769.52
2018-07-14T03:34:12.560Z,100770.61
2018-07-14T03:36:40.345Z,100770.31
2018-07-14T03:39:08.175Z,100773.92
2018-07-14T03:41:36.043Z,100771.45
2018-07-14T03:44:03.853Z,100773.67
2018-07-14T03:46:31.675Z,100776.69
2018-07-14T03:48:59.499Z,100775.86
2018-07-14T03:51:27.315Z,100770.56
2018-07-14T03:53:55.144Z,100777.75
2018-07-14T03:56:23.056Z,100773.04
2018-07-14T03:58:50.802Z,100774.69
2018-07-14T04:01:18.599Z,100771.93
2018-07-14T04:03:46.340Z,100769.11
2018-07-14T04:06:14.113Z,100767.19
2018-07-14T04:08:41.947Z,100766.59
2018-07-14T04:11:09.747Z,100769.34
2018-07-14T04:13:37.588Z,100777.10
2018-07-14T04:16:05.450Z,100774.58
2018-07-14T04:18:33.299Z,100779.81
2018-07-14T04:21:01.151Z,100787.00
2018-07-14T04:23:29.000Z,100786.95
2018-07-14T04:25:56.811Z,100786.93
2018-07-14T04:28:24.575Z,100781.36
2018-07-14T04:30:52.435Z,100787.19
2018-07-14T04:33:20.260Z,100788.55
2018-07-14T04:35:48.113Z,100793.24
2018-07-14T04:38:15.921Z,100793.77
2018-07-14T04:40:43.699Z,100793.80
2018-07-14T04:43:11.516Z,100796.81
2018-07-14T04:45:39.348Z,100799.00
2018-07-14T04:48:07.147Z,100790.98
2018-07-14T04:50:34.971Z,100791.22
2018-07-14T04:53:02.834Z,100792.34
2018-07-14T04:55:30.626Z,100795.65
2018-07-14T04:57:58.513Z,100797.56
2018-07-14T05:00:26.314Z,100795.59
2018-07-14T05:02:54.108Z,100790.02
2018-07-14T05:05:21.913Z,100791.64
2018-07-14T05:07:49.718Z,100786.66
2018-07-14T05:10:17.529Z,100790.81
2018-07-14T05:12:45.360Z,100788.55
2018-07-14T05:15:13.124Z,100791.88
2018-07-14T05:17:40.963Z,100792.73
2018-07-14T05:20:08.771Z,100793.06
2018-07-14T05:22:36.558Z,100791.64
2018-07-14T05:25:04.496Z,100792.17
2018-07-14T05:27:32.235Z,100794.06
2018-07-14T05:30:00.091Z,100794.03
2018-07-14T05:32:27.912Z,100799.52
2018-07-14T05:34:55.736Z,100792.78
2018-07-14T05:37:23.555Z,100801.03
2018-07-14T05:39:51.334Z,100797.05
2018-07-14T05:42:19.126Z,100797.80
2018-07-14T05:44:46.964Z,100793.33
2018-07-14T05:47:14.900Z,100795.47
2018-07-14T05:49:42.680Z,100799.28
2018-07-14T05:52:10.553Z,100796.37
2018-07-14T05:54:38.296Z,100792.89
2018-07-14T05:57:06.139Z,100794.64
2018-07-14T05:59:34.051Z,100797.28
2018-07-14T06:02:01.844Z,100801.52
2018-07-14T06:04:29.700Z,100799.77
2018-07-14T06:06:57.545Z,100797.19
2018-07-14T06:09:25.356Z,100800.36
2018-07-14T06:11:53.124Z,100796.25
2018-07-14T06:14:21.031Z,100800.33
2018-07-14T06:16:48.788Z,100794.58
2018-07-14T06:19:16.585Z,100798.78
2018-07-14T06:21:44.451Z,100806.80
2018-07-14T06:24:12.275Z,100801.88
2018-07-14T06:26:40.020Z,100803.44
2018-07-14T06:29:07.775Z,100807.22
2018-07-14T06:31:35.625Z,100802.64
2018-07-14T06:34:03.460Z,100804.67
2018-07-14T06:36:31.308Z,100807.94
2018-07-14T06:38:59.063Z,100811.82
2018-07-14T06:41:26.966Z,100808.41
2018-07-14T06:43:54.772Z,100807.30
2018-07-14T06:46:22.644Z,100812.47
2018-07-14T06:48:50.466Z,100821.22
2018-07-14T06:51:18.282Z,100821.70
2018-07-14T06:53:46.005Z,100825.00
2018-07-14T06:56:13.796Z,100822.64
2018-07-14T06:58:41.687Z,100825.51
2018-07-14T07:01:09.544Z,100823.20
2018-07-14T07:03:37.442Z,100814.34
2018-07-14T07:06:05.304Z,100812.73
2018-07-14T07:08:33.195Z,100816.71
2018-07-14T07:11:01.003Z,100818.23
2018-07-14T07:13:28.851Z,100818.81
2018-07-14T07:15:56.659Z,100815.88
2018-07-14T07:18:24.571Z,100821.08
2018-07-14T07:20:52.383Z,100821.59
2018-07-14T07:23:20.213Z,100816.60
2018-07-14T07:25:50.232Z,100819.80
2018-07-14T07:28:17.979Z,100823.72
2018-07-14T07:30:45.763Z,100822.25
2018-07-14T07:33:13.583Z,100825.98
2018-07-14T07:35:41.479Z,100830.03
2018-07-14T07:38:09.336Z,100821.31
2018-07-14T07:40:37.141Z,100822.61
2018-07-14T07:43:05.170Z,100814.73
2018-07-14T07:45:33.007Z,100812.89
2018-07-14T07:48:00.766Z,100818.78
2018-07-14T07:50:28.551Z,100814.92
2018-07-14T07:52:56.355Z,100807.50
2018-07-14T07:55:24.161Z,100812.55
2018-07-14T07:57:51.950Z,100818.84
2018-07-14T08:00:19.723Z,100804.36
2018-07-14T08:02:47.556Z,100810.30
2018-07-14T08:05:15.335Z,100808.84
2018-07-14T08:07:43.171Z,100809.66
2018-07-14T08:10:11.021Z,100812.04
2018-07-14T08:12:38.900Z,100808.08
2018-07-14T08:15:06.776Z,100806.49
2018-07-14T08:17:34.592Z,100804.84
2018-07-14T08:20:02.423Z,100802.36
2018-07-14T08:22:30.268Z,100799.98
2018-07-14T08:24:58.189Z,100803.01
2018-07-14T08:27:25.976Z,100800.28
2018-07-14T08:29:53.799Z,100801.00
2018-07-14T08:32:21.684Z,100792.87
2018-07-14T08:34:49.464Z,100800.94
2018-07-14T08:37:17.264Z,100793.49
2018-07-14T08:39:45.095Z,100792.81
2018-07-14T08:42:12.827Z,100790.70
2018-07-14T08:44:40.696Z,100789.70
2018-07-14T08:47:08.599Z,100787.95
2018-07-14T08:49:36.400Z,100788.20
2018-07-14T08:52:04.263Z,100789.77
2018-07-14T08:54:32.076Z,100784.06
2018-07-14T08:56:59.984Z,100785.52
2018-07-14T08:59:27.783Z,100783.08
2018-07-14T09:01:55.585Z,100784.20
2018-07-14T09:04:23.399Z,100781.45
2018-07-14T09:06:51.356Z,100782.14
2018-07-14T09:09:19.111Z,100784.53
2018-07-14T09:11:46.931Z,100782.36
2018-07-14T09:14:14.771Z,100779.84
2018-07-14T09:16:42.585Z,100781.40
2018-07-14T09:19:10.504Z,100773.73
2018-07-14T09:21:38.424Z,100773.66
2018-07-14T09:24:06.287Z,100772.77
2018-07-14T09:26:34.163Z,100769.65
2018-07-14T09:29:01.983Z,100762.40
2018-07-14T09:31:29.771Z,100759.16
2018-07-14T09:33:57.592Z,100753.46
2018-07-14T09:36:25.486Z,100755.11
2018-07-14T09:38:53.292Z,100757.27
2018-07-14T09:41:21.091Z,100755.81
2018-07-14T09:43:48.879Z,100758.64
2018-07-14T09:46:16.740Z,100746.35
2018-07-14T09:48:44.566Z,100750.32
2018-07-14T09:51:12.387Z,100737.50
2018-07-14T09:53:40.230Z,100727.68
2018-07-14T09:56:08.019Z,100734.48
2018-07-14T09:58:35.843Z,100723.90
2018-07-14T10:01:06.599Z,100721.36
2018-07-14T10:03:34.764Z,100729.13
2018-07-14T10:06:02.634Z,100717.64
2018-07-14T10:08:30.958Z,100724.06
2018-07-14T10:10:58.836Z,100711.09
2018-07-14T10:13:26.783Z,100709.34
2018-07-14T10:15:54.967Z,100708.59
2018-07-14T10:18:23.043Z,100707.52
2018-07-14T10:20:50.992Z,100705.97
2018-07-14T10:23:18.959Z,100709.89
2018-07-14T10:25:46.998Z,100703.90
2018-07-14T10:28:14.567Z,100705.11
2018-07-14T10:30:42.355Z,100701.59
2018-07-14T10:33:10.382Z,100702.17
2018-07-14T10:35:38.232Z,100698.34
2018-07-14T10:38:06.300Z,100692.44
2018-07-14T10:40:34.415Z,100696.59
2018-07-14T10:43:02.250Z,100693.48
2018-07-14T10:45:30.051Z,100688.33
2018-07-14T10:47:57.844Z,100688.16
2018-07-14T10:50:25.647Z,100684.44
2018-07-14T10:52:53.395Z,100681.11
2018-07-14T10:55:21.192Z,100683.89
2018-07-14T10:57:49.129Z,100682.78
2018-07-14T11:00:17.692Z,100669.44
2018-07-14T11:02:45.552Z,100662.08
2018-07-14T11:05:13.370Z,100661.80
2018-07-14T11:07:41.172Z,100655.56
2018-07-14T11:10:08.930Z,100651.28
2018-07-14T11:12:36.916Z,100654.34
2018-07-14T11:15:04.858Z,100642.95
2018-07-14T11:17:32.771Z,100643.84
2018-07-14T11:20:00.588Z,100642.92
2018-07-14T11:22:28.397Z,100641.84
2018-07-14T11:24:56.161Z,100643.17
2018-07-14T11:27:23.979Z,100640.67
2018-07-14T11:29:51.779Z,100632.07
2018-07-14T11:32:19.619Z,100632.92
2018-07-14T11:34:47.407Z,100627.75
2018-07-14T11:37:15.226Z,100625.45
2018-07-14T11:39:42.954Z,100624.16
2018-07-14T11:42:10.836Z,100618.64
2018-07-14T11:44:38.659Z,100614.77
2018-07-14T11:47:06.585Z,100613.73
2018-07-14T11:49:34.415Z,100608.94
2018-07-14T11:52:02.263Z,100607.39
2018-07-14T11:54:30.371Z,100612.58
2018-07-14T11:56:58.249Z,100609.39
2018-07-14T11:59:26.302Z,100602.80
2018-07-14T12:01:54.167Z,100595.59
2018-07-14T12:04:21.911Z,100590.98
2018-07-14T12:06:49.738Z,100592.27
2018-07-14T12:09:17.531Z,100588.57
2018-07-14T12:11:45.391Z,100589.66
2018-07-14T12:14:13.311Z,100584.64
2018-07-14T12:16:41.035Z,100585.22
2018-07-14T12:19:08.842Z,100585.22
2018-07-14T12:21:36.674Z,100581.23
2018-07-14T12:24:04.756Z,100579.92
2018-07-14T12:26:32.633Z,100576.67
2018-07-14T12:29:00.363Z,100572.28
2018-07-14T12:31:28.159Z,100570.84
2018-07-14T12:33:55.928Z,100564.01
2018-07-14T12:36:23.763Z,100566.25
2018-07-14T12:38:51.589Z,100558.23
2018-07-14T12:41:19.416Z,100559.42
2018-07-14T12:43:47.332Z,100554.14
2018-07-14T12:46:15.141Z,100552.75
2018-07-14T12:48:42.935Z,100553.34
2018-07-14T12:51:10.683Z,100544.33
2018-07-14T12:53:38.565Z,100547.48
2018-07-14T12:56:06.423Z,100545.30
2018-07-14T12:58:34.277Z,100547.63
2018-07-14T13:01:02.096Z,100544.81
2018-07-14T13:03:29.932Z,100532.77
2018-07-14T13:05:57.805Z,100538.66
2018-07-14T13:08:25.638Z,100533.05
2018-07-14T13:10:53.423Z,100535.33
2018-07-14T13:13:21.243Z,100534.14
2018-07-14T13:15:49.115Z,100532.80
2018-07-14T13:18:16.880Z,100536.47
2018-07-14T13:20:44.891Z,100525.67
2018-07-14T13:23:12.731Z,100527.31
2018-07-14T13:25:40.575Z,100519.25
2018-07-14T13:28:08.275Z,100516.28
2018-07-14T13:30:36.119Z,100508.02
2018-07-14T13:33:04.160Z,100506.06
2018-07-14T13:35:31.992Z,100506.05
2018-07-14T13:37:59.840Z,100503.20
2018-07-14T13:40:27.703Z,100501.05
2018-07-14T13:42:55.593Z,100503.28
2018-07-14T13:45:23.754Z,100504.80
2018-07-14T13:47:51.620Z,100506.66
2018-07-14T13:50:19.474Z,100507.31
2018-07-14T13:52:47.257Z,100498.98
2018-07-14T13:55:15.104Z,100503.02
2018-07-14T13:57:42.940Z,100501.19
2018-07-14T14:00:10.844Z,100500.39
2018-07-14T14:02:38.627Z,100494.08
2018-07-14T14:05:06.528Z,100487.42
2018-07-14T14:07:34.423Z,100484.55
2018-07-14T14:10:02.272Z,100481.09
2018-07-14T14:12:31.243Z,100486.80
2018-07-14T14:14:59.023Z,100475.61
2018-07-14T14:17:26.897Z,100475.38
2018-07-14T14:19:55.317Z,100472.33
2018-07-14T14:22:23.025Z,100469.72
2018-07-14T14:24:50.769Z,100471.53
2018-07-14T14:27:18.564Z,100464.20
2018-07-14T14:29:46.371Z,100461.80
2018-07-14T14:32:14.843Z,100465.45
2018-07-14T14:34:42.708Z,100459.76
2018-07-14T14:37:10.549Z,100455.91
2018-07-14T14:39:38.355Z,100458.16
2018-07-14T14:42:06.488Z,100460.15
2018-07-14T14:44:34.224Z,100464.78
2018-07-14T14:47:02.096Z,100457.88
2018-07-14T14:49:29.944Z,100458.89
2018-07-14T14:51:57.779Z,100453.80
2018-07-14T14:54:25.601Z,100453.00
2018-07-14T14:56:53.439Z,100453.95
2018-07-14T14:59:21.266Z,100444.59
2018-07-14T15:01:49.000Z,100446.15
2018-07-14T15:04:16.839Z,100443.51
2018-07-14T15:06:44.635Z,100442.72
2018-07-14T15:09:12.527Z,100438.44
2018-07-14T15:11:40.363Z,100437.80
2018-07-14T15:14:08.196Z,100430.91
2018-07-14T15:16:36.008Z,100435.59
2018-07-14T15:19:03.805Z,100437.48
2018-07-14T15:21:31.571Z,100423.52
2018-07-14T15:23:59.431Z,100429.75
2018-07-14T15:26:28.112Z,100424.37
2018-07-14T15:28:55.903Z,100425.34
2018-07-14T15:31:24.070Z,100426.97
2018-07-14T15:33:51.882Z,100431.11
2018-07-14T15:36:19.703Z,100422.63
2018-07-14T15:38:47.544Z,100421.58
2018-07-14T15:41:15.421Z,100419.67
2018-07-14T15:43:43.293Z,100421.30
2018-07-14T15:46:11.135Z,100423.48
2018-07-14T15:48:39.023Z,100419.96
2018-07-14T15:51:06.887Z,100413.67
2018-07-14T15:53:34.626Z,100414.81
2018-07-14T15:56:02.531Z,100416.07
2018-07-14T15:58:30.368Z,100414.35
2018-07-14T16:00:58.171Z,100413.98
2018-07-14T16:03:25.965Z,100416.53
2018-07-14T16:05:53.779Z,100407.98
2018-07-14T16:08:21.583Z,100414.15
2018-07-14T16:10:49.638Z,100414.35
2018-07-14T16:13:17.367Z,100410.30
2018-07-14T16:15:45.188Z,100409.64
2018-07-14T16:18:12.948Z,100414.61
2018-07-14T16:20:40.696Z,100406.90
2018-07-14T16:23:08.471Z,100406.00
2018-07-14T16:25:36.362Z,100406.91
2018-07-14T16:28:04.148Z,100405.95
2018-07-14T16:30:31.931Z,100403.73
2018-07-14T16:32:59.692Z,100406.16
2018-07-14T16:35:27.517Z,100403.77
2018-07-14T16:37:55.336Z,100393.94
2018-07-14T16:40:23.083Z,100392.79
2018-07-14T16:42:51.438Z,100388.14
2018-07-14T16:45:19.296Z,100388.39
2018-07-14T16:47:47.108Z,100383.70
2018-07-14T16:50:24.873Z,100378.62
2018-07-14T16:52:52.951Z,100377.15
2018-07-14T16:55:20.804Z,100381.30
2018-07-14T16:57:48.643Z,100385.69
2018-07-14T17:00:16.423Z,100386.27
2018-07-14T17:02:44.234Z,100381.42
2018-07-14T17:05:12.096Z,100384.20
2018-07-14T17:07:39.903Z,100383.22
2018-07-14T17:10:07.779Z,100377.91
2018-07-14T17:12:35.583Z,100376.73
2018-07-14T17:15:03.435Z,100370.47
2018-07-14T17:17:31.207Z,100376.29
2018-07-14T17:19:58.975Z,100370.50
2018-07-14T17:22:26.784Z,100367.00
2018-07-14T17:24:54.599Z,100367.72
2018-07-14T17:27:22.395Z,100364.40
2018-07-14T17:29:50.148Z,100374.45
2018-07-14T17:32:17.995Z,100368.02
2018-07-14T17:34:45.924Z,100372.15
2018-07-14T17:37:13.725Z,100379.13
2018-07-14T17:39:41.524Z,100377.64
2018-07-14T17:42:09.363Z,100379.23
2018-07-14T17:44:37.144Z,100375.21
2018-07-14T17:47:05.201Z,100374.19
2018-07-14T17:49:32.970Z,100375.42
2018-07-14T17:52:00.917Z,100375.94
2018-07-14T17:54:28.551Z,100377.50
2018-07-14T17:56:56.426Z,100386.56
2018-07-14T17:59:24.228Z,100385.08
2018-07-14T18:01:52.055Z,100384.52
2018-07-14T18:04:19.855Z,100386.64
2018-07-14T18:06:47.649Z,100391.86
2018-07-14T18:09:15.580Z,100391.15
2018-07-14T18:11:43.380Z,100392.28
2018-07-14T18:14:11.216Z,100385.93
2018-07-14T18:16:39.097Z,100385.87
2018-07-14T18:19:07.110Z,100383.70
2018-07-14T18:21:34.983Z,100387.06
2018-07-14T18:24:02.799Z,100382.59
2018-07-14T18:26:30.632Z,100381.55
2018-07-14T18:28:58.427Z,100385.16
2018-07-14T18:31:26.248Z,100383.02
2018-07-14T18:33:54.034Z,100382.20
2018-07-14T18:36:21.852Z,100381.42
2018-07-14T18:38:49.680Z,100384.48
2018-07-14T18:41:17.496Z,100380.41
2018-07-14T18:43:45.343Z,100384.62
2018-07-14T18:46:13.699Z,100382.31
2018-07-14T18:48:41.506Z,100383.96
2018-07-14T18:51:09.299Z,100381.52
2018-07-14T18:53:37.180Z,100387.72
2018-07-14T18:56:05.314Z,100390.42
2018-07-14T18:58:33.158Z,100382.37
2018-07-14T19:01:00.895Z,100394.33
2018-07-14T19:03:28.755Z,100393.30
2018-07-14T19:05:56.555Z,100394.22
2018-07-14T19:08:24.528Z,100389.30
2018-07-14T19:10:52.377Z,100393.37
2018-07-14T19:13:20.158Z,100395.27
2018-07-14T19:15:48.057Z,100392.10
2018-07-14T19:18:15.866Z,100393.86
2018-07-14T19:20:43.748Z,100400.29
2018-07-14T19:23:11.540Z,100404.85
2018-07-14T19:25:39.384Z,100408.11
2018-07-14T19:28:07.244Z,100403.78
2018-07-14T19:30:35.095Z,100402.51
2018-07-14T19:33:03.036Z,100402.84
2018-07-14T19:35:30.882Z,100403.47
2018-07-14T19:37:58.705Z,100402.63
2018-07-14T19:40:26.535Z,100406.50
2018-07-14T19:42:54.315Z,100413.70
2018-07-14T19:45:22.095Z,100412.59
2018-07-14T19:47:50.076Z,100419.38
2018-07-14T19:50:17.881Z,100427.73
2018-07-14T19:52:45.648Z,100429.48
2018-07-14T19:55:13.443Z,100434.41
2018-07-14T19:57:41.279Z,100438.19
2018-07-14T20:00:09.248Z,100438.64
2018-07-14T20:02:37.103Z,100456.27
2018-07-14T20:05:04.964Z,100461.06
2018-07-14T20:07:32.740Z,100457.70
2018-07-14T20:10:00.686Z,100460.11
2018-07-14T20:12:29.832Z,100462.20
2018-07-14T20:14:57.713Z,100463.58
2018-07-14T20:17:25.531Z,100468.28
2018-07-14T20:19:53.331Z,100466.14
2018-07-14T20:22:21.180Z,100473.69
2018-07-14T20:24:48.988Z,100474.85
2018-07-14T20:27:16.823Z,100476.14
2018-07-14T20:29:44.684Z,100477.23
2018-07-14T20:32:12.508Z,100485.98
2018-07-14T20:34:40.277Z,100478.09
2018-07-14T20:37:08.315Z,100471.27
2018-07-14T20:39:36.099Z,100484.48
2018-07-14T20:42:04.396Z,100485.39
2018-07-14T20:44:32.483Z,100488.39
2018-07-14T20:47:00.403Z,100484.43
2018-07-14T20:49:28.271Z,100489.55
2018-07-14T20:51:56.086Z,100479.89
2018-07-14T20:54:23.912Z,100491.17
2018-07-14T20:56:51.803Z,100489.12
2018-07-14T20:59:19.724Z,100491.02
2018-07-14T21:01:47.520Z,100490.84
2018-07-14T21:04:15.384Z,100487.48
2018-07-14T21:06:43.253Z,100488.81
2018-07-14T21:09:11.055Z,100491.09
2018-07-14T21:11:38.832Z,100498.58
2018-07-14T21:14:06.566Z,100500.06
2018-07-14T21:16:34.428Z,100501.13
2018-07-14T21:19:02.335Z,100496.18
2018-07-14T21:21:30.148Z,100501.95
2018-07-14T21:23:57.968Z,100509.73
2018-07-14T21:26:25.867Z,100505.72
2018-07-14T21:28:53.656Z,100505.72
2018-07-14T21:31:21.532Z,100512.08
2018-07-14T21:33:49.359Z,100511.17
2018-07-14T21:36:17.123Z,100514.45
2018-07-14T21:38:44.967Z,100511.13
2018-07-14T21:41:12.967Z,100512.50
2018-07-14T21:43:40.744Z,100516.34
2018-07-14T21:46:08.520Z,100515.20
2018-07-14T21:48:36.271Z,100519.38
2018-07-14T21:51:04.322Z,100518.56
2018-07-14T21:53:32.128Z,100515.91
2018-07-14T21:55:59.867Z,100516.56
2018-07-14T21:58:27.643Z,100520.86
2018-07-14T22:01:04.692Z,100523.08
2018-07-14T22:03:34.161Z,100522.72
2018-07-14T22:06:02.438Z,100522.06
2018-07-14T22:08:30.164Z,100525.51
2018-07-14T22:10:58.036Z,100519.70
2018-07-14T22:13:25.867Z,100521.78
2018-07-14T22:15:54.387Z,100525.95
2018-07-14T22:18:22.204Z,100522.91
2018-07-14T22:20:50.040Z,100524.19
2018-07-14T22:23:17.902Z,100528.70
2018-07-14T22:25:45.692Z,100525.30
2018-07-14T22:28:13.609Z,100521.94
2018-07-14T22:30:41.465Z,100531.89
2018-07-14T22:33:09.292Z,100531.52
2018-07-14T22:35:37.068Z,100526.71
2018-07-14T22:38:05.189Z,100522.13
2018-07-14T22:40:33.027Z,100527.06
2018-07-14T22:43:00.842Z,100526.31
2018-07-14T22:45:28.560Z,100526.47
2018-07-14T22:47:56.487Z,100529.42
2018-07-14T22:50:24.352Z,100530.37
2018-07-14T22:52:52.604Z,100525.25
2018-07-14T22:55:20.373Z,100537.16
2018-07-14T22:57:48.171Z,100527.44
2018-07-14T23:00:15.956Z,100540.00
2018-07-14T23:02:44.775Z,100531.42
2018-07-14T23:05:12.575Z,100537.66
2018-07-14T23:07:40.367Z,100536.77
2018-07-14T23:10:08.215Z,100541.33
2018-07-14T23:12:36.108Z,100538.75
2018-07-14T23:15:03.959Z,100535.81
2018-07-14T23:17:31.692Z,100544.83
2018-07-14T23:19:59.442Z,100537.86
2018-07-14T23:22:27.296Z,100536.06
2018-07-14T23:24:55.080Z,100545.11
2018-07-14T23:27:23.256Z,100538.27
2018-07-14T23:29:51.057Z,100546.88
2018-07-14T23:32:18.840Z,100546.28
2018-07-14T23:34:46.690Z,100550.71
2018-07-14T23:37:14.576Z,100552.87
2018-07-14T23:39:42.380Z,100544.48
2018-07-14T23:42:10.159Z,100547.56
2018-07-14T23:44:37.912Z,100546.91
2018-07-14T23:47:05.788Z,100541.13
2018-07-14T23:49:33.575Z,100545.86
2018-07-14T23:52:01.374Z,100539.85
2018-07-14T23:54:29.157Z,100541.23
2018-07-14T23:56:56.956Z,100540.15
2018-07-14T23:59:24.802Z,100538.98
